Lowndesboro, Alabama
Current Conditions -  °F | °C
As of 4:53 AM on Saturday 22 Nov 2014 (Local Time) from KMGM Reporting Station
Clear Clear  
Wind Chill: 37°   Ceiling: Unl
Heat Index: 40°   Visibility: 10mi
Dew Point: 35°   Wind: 5mph
Humidity: 83%   Direction: 70°ENE
Pressure: 30.37"   Gusts: NA
Location:  32.28°N, 86.61°W
Report Text: KMGM 221053Z AUTO 07004KT 10SM CLR 04/02 A3037 RMK AO2 SLP282 T00440017
Loading
Personal Weather Stations






























Interactive Weather Map New forecast layout! Learn more

10-Day Weather Forecast

Advertisements
Track Severe Weather on mobile